sensor_id;sensor_type;location;lat;lon;timestamp;P1;durP1;ratioP1;P2;durP2;ratioP2
55063;SDS011;40963;52.168;21.296;2022-11-15T00:00:40;33.70;;;15.60;;
55063;SDS011;40963;52.168;21.296;2022-11-15T00:03:05;31.95;;;15.13;;
55063;SDS011;40963;52.168;21.296;2022-11-15T00:05:34;34.05;;;15.18;;
55063;SDS011;40963;52.168;21.296;2022-11-15T00:08:01;32.42;;;15.13;;
55063;SDS011;40963;52.168;21.296;2022-11-15T00:10:26;26.35;;;14.30;;
55063;SDS011;40963;52.168;21.296;2022-11-15T00:12:52;27.10;;;14.57;;
55063;SDS011;40963;52.168;21.296;2022-11-15T00:15:18;36.35;;;15.00;;
55063;SDS011;40963;52.168;21.296;2022-11-15T00:17:43;34.38;;;15.95;;
55063;SDS011;40963;52.168;21.296;2022-11-15T00:20:09;38.08;;;17.05;;
55063;SDS011;40963;52.168;21.296;2022-11-15T00:22:36;37.45;;;18.02;;
55063;SDS011;40963;52.168;21.296;2022-11-15T00:25:02;37.83;;;17.15;;
55063;SDS011;40963;52.168;21.296;2022-11-15T00:27:28;39.17;;;17.17;;
55063;SDS011;40963;52.168;21.296;2022-11-15T00:29:54;38.65;;;16.95;;
55063;SDS011;40963;52.168;21.296;2022-11-15T00:32:19;36.33;;;16.88;;
55063;SDS011;40963;52.168;21.296;2022-11-15T00:34:45;38.58;;;16.95;;
55063;SDS011;40963;52.168;21.296;2022-11-15T00:37:11;39.17;;;18.33;;
55063;SDS011;40963;52.168;21.296;2022-11-15T00:39:36;44.70;;;19.05;;
55063;SDS011;40963;52.168;21.296;2022-11-15T00:42:02;40.30;;;17.85;;
55063;SDS011;40963;52.168;21.296;2022-11-15T00:44:28;42.80;;;18.13;;
55063;SDS011;40963;52.168;21.296;2022-11-15T00:46:54;38.28;;;16.38;;
55063;SDS011;40963;52.168;21.296;2022-11-15T00:49:19;41.85;;;18.08;;
55063;SDS011;40963;52.168;21.296;2022-11-15T00:51:45;39.72;;;19.00;;
55063;SDS011;40963;52.168;21.296;2022-11-15T00:54:10;41.72;;;19.05;;
55063;SDS011;40963;52.168;21.296;2022-11-15T00:56:36;42.67;;;17.88;;
55063;SDS011;40963;52.168;21.296;2022-11-15T00:59:02;42.83;;;18.17;;
55063;SDS011;40963;52.168;21.296;2022-11-15T01:01:28;38.40;;;17.10;;
55063;SDS011;40963;52.168;21.296;2022-11-15T01:03:53;38.20;;;16.58;;
55063;SDS011;40963;52.168;21.296;2022-11-15T01:06:19;41.78;;;17.20;;
55063;SDS011;40963;52.168;21.296;2022-11-15T01:08:45;43.83;;;17.60;;
55063;SDS011;40963;52.168;21.296;2022-11-15T01:11:11;40.58;;;17.92;;
55063;SDS011;40963;52.168;21.296;2022-11-15T01:13:37;36.58;;;16.88;;
55063;SDS011;40963;52.168;21.296;2022-11-15T01:16:08;36.42;;;16.48;;
55063;SDS011;40963;52.168;21.296;2022-11-15T01:18:39;41.28;;;17.00;;
55063;SDS011;40963;52.168;21.296;2022-11-15T01:21:07;38.85;;;17.15;;
55063;SDS011;40963;52.168;21.296;2022-11-15T01:23:37;38.17;;;16.58;;
55063;SDS011;40963;52.168;21.296;2022-11-15T01:26:04;43.28;;;18.30;;
55063;SDS011;40963;52.168;21.296;2022-11-15T01:28:32;42.80;;;18.40;;
55063;SDS011;40963;52.168;21.296;2022-11-15T01:31:00;39.67;;;17.83;;
55063;SDS011;40963;52.168;21.296;2022-11-15T01:33:27;45.58;;;18.13;;
55063;SDS011;40963;52.168;21.296;2022-11-15T01:35:53;41.03;;;17.83;;
55063;SDS011;40963;52.168;21.296;2022-11-15T01:38:19;39.97;;;17.25;;
55063;SDS011;40963;52.168;21.296;2022-11-15T01:40:45;37.25;;;17.48;;
55063;SDS011;40963;52.168;21.296;2022-11-15T01:43:20;39.33;;;16.35;;
55063;SDS011;40963;52.168;21.296;2022-11-15T01:45:55;42.35;;;16.65;;
55063;SDS011;40963;52.168;21.296;2022-11-15T01:48:44;41.55;;;16.52;;
55063;SDS011;40963;52.168;21.296;2022-11-15T01:51:11;38.78;;;16.17;;
55063;SDS011;40963;52.168;21.296;2022-11-15T01:53:39;38.03;;;16.17;;
55063;SDS011;40963;52.168;21.296;2022-11-15T01:56:10;46.70;;;18.70;;
55063;SDS011;40963;52.168;21.296;2022-11-15T01:58:39;42.28;;;17.17;;
55063;SDS011;40963;52.168;21.296;2022-11-15T02:01:06;38.63;;;17.80;;
55063;SDS011;40963;52.168;21.296;2022-11-15T02:03:38;37.03;;;16.55;;
55063;SDS011;40963;52.168;21.296;2022-11-15T02:06:16;49.33;;;18.30;;
55063;SDS011;40963;52.168;21.296;2022-11-15T02:08:43;39.70;;;18.25;;
55063;SDS011;40963;52.168;21.296;2022-11-15T02:11:09;45.22;;;18.80;;
55063;SDS011;40963;52.168;21.296;2022-11-15T02:13:36;41.45;;;17.98;;
55063;SDS011;40963;52.168;21.296;2022-11-15T02:18:52;38.22;;;15.65;;
55063;SDS011;40963;52.168;21.296;2022-11-15T02:21:39;39.47;;;17.58;;
55063;SDS011;40963;52.168;21.296;2022-11-15T02:24:27;43.47;;;17.90;;
55063;SDS011;40963;52.168;21.296;2022-11-15T02:37:45;44.38;;;18.65;;
55063;SDS011;40963;52.168;21.296;2022-11-15T02:40:29;50.93;;;20.30;;
55063;SDS011;40963;52.168;21.296;2022-11-15T02:43:07;46.92;;;19.08;;
55063;SDS011;40963;52.168;21.296;2022-11-15T02:45:56;46.40;;;17.92;;
55063;SDS011;40963;52.168;21.296;2022-11-15T02:48:29;65.63;;;20.80;;
55063;SDS011;40963;52.168;21.296;2022-11-15T02:50:56;46.97;;;19.33;;
55063;SDS011;40963;52.168;21.296;2022-11-15T02:53:23;49.38;;;19.95;;
55063;SDS011;40963;52.168;21.296;2022-11-15T02:55:53;50.97;;;19.00;;
55063;SDS011;40963;52.168;21.296;2022-11-15T03:06:50;47.95;;;20.65;;
55063;SDS011;40963;52.168;21.296;2022-11-15T03:12:05;58.42;;;21.58;;
55063;SDS011;40963;52.168;21.296;2022-11-15T03:14:54;57.85;;;20.65;;
55063;SDS011;40963;52.168;21.296;2022-11-15T03:17:29;46.90;;;20.13;;
55063;SDS011;40963;52.168;21.296;2022-11-15T03:20:01;55.15;;;20.30;;
55063;SDS011;40963;52.168;21.296;2022-11-15T03:22:29;46.08;;;19.45;;
55063;SDS011;40963;52.168;21.296;2022-11-15T03:25:00;45.53;;;19.00;;
55063;SDS011;40963;52.168;21.296;2022-11-15T03:27:31;41.47;;;18.42;;
55063;SDS011;40963;52.168;21.296;2022-11-15T03:30:03;45.92;;;18.35;;
55063;SDS011;40963;52.168;21.296;2022-11-15T03:32:32;47.90;;;19.42;;
55063;SDS011;40963;52.168;21.296;2022-11-15T03:35:03;52.13;;;20.17;;
55063;SDS011;40963;52.168;21.296;2022-11-15T03:40:17;45.42;;;18.42;;
55063;SDS011;40963;52.168;21.296;2022-11-15T03:42:48;49.00;;;20.02;;
55063;SDS011;40963;52.168;21.296;2022-11-15T03:45:47;49.70;;;20.23;;
55063;SDS011;40963;52.168;21.296;2022-11-15T03:48:18;49.15;;;20.15;;
55063;SDS011;40963;52.168;21.296;2022-11-15T03:50:49;49.00;;;21.02;;
55063;SDS011;40963;52.168;21.296;2022-11-15T03:53:15;52.80;;;19.38;;
55063;SDS011;40963;52.168;21.296;2022-11-15T03:55:41;49.40;;;19.02;;
55063;SDS011;40963;52.168;21.296;2022-11-15T03:58:06;48.10;;;19.85;;
55063;SDS011;40963;52.168;21.296;2022-11-15T04:00:32;52.78;;;19.75;;
55063;SDS011;40963;52.168;21.296;2022-11-15T04:02:58;49.28;;;18.65;;
55063;SDS011;40963;52.168;21.296;2022-11-15T04:05:24;44.88;;;16.80;;
55063;SDS011;40963;52.168;21.296;2022-11-15T04:07:50;48.13;;;18.70;;
55063;SDS011;40963;52.168;21.296;2022-11-15T04:10:15;45.75;;;19.13;;
55063;SDS011;40963;52.168;21.296;2022-11-15T04:12:42;47.33;;;18.85;;
55063;SDS011;40963;52.168;21.296;2022-11-15T04:15:12;45.30;;;19.55;;
55063;SDS011;40963;52.168;21.296;2022-11-15T04:17:43;41.72;;;17.80;;
55063;SDS011;40963;52.168;21.296;2022-11-15T04:20:17;48.05;;;18.95;;
55063;SDS011;40963;52.168;21.296;2022-11-15T04:23:04;44.92;;;18.05;;
55063;SDS011;40963;52.168;21.296;2022-11-15T04:25:51;36.28;;;16.25;;
55063;SDS011;40963;52.168;21.296;2022-11-15T04:28:19;50.33;;;18.42;;
55063;SDS011;40963;52.168;21.296;2022-11-15T04:30:44;50.38;;;18.02;;
55063;SDS011;40963;52.168;21.296;2022-11-15T04:33:10;49.70;;;17.67;;
55063;SDS011;40963;52.168;21.296;2022-11-15T04:35:36;44.53;;;17.15;;
55063;SDS011;40963;52.168;21.296;2022-11-15T04:38:03;41.72;;;17.65;;
55063;SDS011;40963;52.168;21.296;2022-11-15T04:40:30;40.88;;;16.40;;
55063;SDS011;40963;52.168;21.296;2022-11-15T04:42:56;48.95;;;19.15;;
55063;SDS011;40963;52.168;21.296;2022-11-15T04:45:22;41.42;;;16.45;;
55063;SDS011;40963;52.168;21.296;2022-11-15T04:47:48;53.53;;;17.65;;
55063;SDS011;40963;52.168;21.296;2022-11-15T04:50:14;47.85;;;18.65;;
55063;SDS011;40963;52.168;21.296;2022-11-15T04:52:41;48.53;;;19.17;;
55063;SDS011;40963;52.168;21.296;2022-11-15T04:55:11;53.38;;;19.85;;
55063;SDS011;40963;52.168;21.296;2022-11-15T04:57:38;50.22;;;20.02;;
55063;SDS011;40963;52.168;21.296;2022-11-15T05:00:04;50.05;;;18.55;;
55063;SDS011;40963;52.168;21.296;2022-11-15T05:02:34;53.33;;;19.90;;
55063;SDS011;40963;52.168;21.296;2022-11-15T05:05:18;48.17;;;19.90;;
55063;SDS011;40963;52.168;21.296;2022-11-15T05:07:44;55.60;;;19.17;;
55063;SDS011;40963;52.168;21.296;2022-11-15T05:10:09;57.03;;;19.17;;
55063;SDS011;40963;52.168;21.296;2022-11-15T05:12:35;46.78;;;19.50;;
55063;SDS011;40963;52.168;21.296;2022-11-15T05:15:01;48.85;;;18.75;;
55063;SDS011;40963;52.168;21.296;2022-11-15T05:17:27;50.85;;;20.45;;
55063;SDS011;40963;52.168;21.296;2022-11-15T05:19:53;58.72;;;21.20;;
55063;SDS011;40963;52.168;21.296;2022-11-15T05:22:19;54.72;;;18.63;;
55063;SDS011;40963;52.168;21.296;2022-11-15T05:24:45;51.35;;;19.95;;
55063;SDS011;40963;52.168;21.296;2022-11-15T05:27:11;53.25;;;20.00;;
55063;SDS011;40963;52.168;21.296;2022-11-15T05:29:36;47.88;;;19.17;;
55063;SDS011;40963;52.168;21.296;2022-11-15T05:32:03;50.60;;;18.17;;
55063;SDS011;40963;52.168;21.296;2022-11-15T05:34:31;52.25;;;18.92;;
55063;SDS011;40963;52.168;21.296;2022-11-15T05:36:57;42.88;;;17.35;;
55063;SDS011;40963;52.168;21.296;2022-11-15T05:39:23;46.92;;;18.60;;
55063;SDS011;40963;52.168;21.296;2022-11-15T05:41:52;49.20;;;17.70;;
55063;SDS011;40963;52.168;21.296;2022-11-15T05:44:27;49.90;;;18.67;;
55063;SDS011;40963;52.168;21.296;2022-11-15T05:46:53;50.08;;;17.75;;
55063;SDS011;40963;52.168;21.296;2022-11-15T05:49:22;45.67;;;17.30;;
55063;SDS011;40963;52.168;21.296;2022-11-15T05:51:52;53.17;;;19.80;;
55063;SDS011;40963;52.168;21.296;2022-11-15T05:54:19;53.88;;;19.27;;
55063;SDS011;40963;52.168;21.296;2022-11-15T05:56:46;56.03;;;18.42;;
55063;SDS011;40963;52.168;21.296;2022-11-15T05:59:12;56.83;;;19.15;;
55063;SDS011;40963;52.168;21.296;2022-11-15T06:01:38;46.58;;;17.35;;
55063;SDS011;40963;52.168;21.296;2022-11-15T06:04:04;58.63;;;18.52;;
55063;SDS011;40963;52.168;21.296;2022-11-15T06:06:30;52.15;;;18.75;;
55063;SDS011;40963;52.168;21.296;2022-11-15T06:08:55;58.92;;;19.13;;
55063;SDS011;40963;52.168;21.296;2022-11-15T06:11:21;54.95;;;19.88;;
55063;SDS011;40963;52.168;21.296;2022-11-15T06:13:47;54.67;;;19.25;;
55063;SDS011;40963;52.168;21.296;2022-11-15T06:16:12;56.80;;;20.10;;
55063;SDS011;40963;52.168;21.296;2022-11-15T06:18:38;51.78;;;18.13;;
55063;SDS011;40963;52.168;21.296;2022-11-15T06:21:04;47.97;;;18.33;;
55063;SDS011;40963;52.168;21.296;2022-11-15T06:23:34;52.28;;;19.17;;
55063;SDS011;40963;52.168;21.296;2022-11-15T06:26:00;52.78;;;18.70;;
55063;SDS011;40963;52.168;21.296;2022-11-15T06:28:28;44.45;;;16.58;;
55063;SDS011;40963;52.168;21.296;2022-11-15T06:30:54;64.32;;;20.60;;
55063;SDS011;40963;52.168;21.296;2022-11-15T06:33:20;54.17;;;19.63;;
55063;SDS011;40963;52.168;21.296;2022-11-15T06:35:46;62.78;;;19.52;;
55063;SDS011;40963;52.168;21.296;2022-11-15T06:38:11;63.00;;;20.10;;
55063;SDS011;40963;52.168;21.296;2022-11-15T06:40:37;65.78;;;19.88;;
55063;SDS011;40963;52.168;21.296;2022-11-15T06:43:04;56.72;;;18.77;;
55063;SDS011;40963;52.168;21.296;2022-11-15T06:45:31;55.80;;;20.15;;
55063;SDS011;40963;52.168;21.296;2022-11-15T06:47:57;65.70;;;20.45;;
55063;SDS011;40963;52.168;21.296;2022-11-15T06:50:23;61.15;;;19.92;;
55063;SDS011;40963;52.168;21.296;2022-11-15T06:52:49;53.53;;;19.45;;
55063;SDS011;40963;52.168;21.296;2022-11-15T06:55:15;68.00;;;20.02;;
55063;SDS011;40963;52.168;21.296;2022-11-15T06:57:48;59.53;;;19.38;;
55063;SDS011;40963;52.168;21.296;2022-11-15T07:00:15;47.20;;;17.98;;
55063;SDS011;40963;52.168;21.296;2022-11-15T07:02:41;62.47;;;20.30;;
55063;SDS011;40963;52.168;21.296;2022-11-15T07:05:07;57.03;;;18.73;;
55063;SDS011;40963;52.168;21.296;2022-11-15T07:07:33;53.17;;;17.55;;
55063;SDS011;40963;52.168;21.296;2022-11-15T07:09:58;57.13;;;18.92;;
55063;SDS011;40963;52.168;21.296;2022-11-15T07:12:24;54.47;;;18.50;;
55063;SDS011;40963;52.168;21.296;2022-11-15T07:14:50;56.17;;;17.67;;
55063;SDS011;40963;52.168;21.296;2022-11-15T07:17:15;62.78;;;19.92;;
55063;SDS011;40963;52.168;21.296;2022-11-15T07:19:41;52.42;;;17.70;;
55063;SDS011;40963;52.168;21.296;2022-11-15T07:22:06;51.53;;;17.90;;
55063;SDS011;40963;52.168;21.296;2022-11-15T07:24:32;52.28;;;17.65;;
55063;SDS011;40963;52.168;21.296;2022-11-15T07:26:58;54.78;;;18.48;;
55063;SDS011;40963;52.168;21.296;2022-11-15T07:29:23;64.00;;;19.30;;
55063;SDS011;40963;52.168;21.296;2022-11-15T07:31:49;50.65;;;18.00;;
55063;SDS011;40963;52.168;21.296;2022-11-15T07:34:15;53.35;;;17.02;;
55063;SDS011;40963;52.168;21.296;2022-11-15T07:36:41;46.08;;;16.38;;
55063;SDS011;40963;52.168;21.296;2022-11-15T07:39:06;48.25;;;16.15;;
55063;SDS011;40963;52.168;21.296;2022-11-15T07:41:32;47.20;;;15.35;;
55063;SDS011;40963;52.168;21.296;2022-11-15T07:43:58;46.92;;;15.98;;
55063;SDS011;40963;52.168;21.296;2022-11-15T07:46:24;55.33;;;17.15;;
55063;SDS011;40963;52.168;21.296;2022-11-15T07:48:49;46.92;;;15.68;;
55063;SDS011;40963;52.168;21.296;2022-11-15T07:51:15;49.47;;;16.20;;
55063;SDS011;40963;52.168;21.296;2022-11-15T07:53:42;56.58;;;17.73;;
55063;SDS011;40963;52.168;21.296;2022-11-15T07:56:08;50.25;;;15.98;;
55063;SDS011;40963;52.168;21.296;2022-11-15T07:58:34;52.97;;;16.67;;
55063;SDS011;40963;52.168;21.296;2022-11-15T08:01:05;55.53;;;16.88;;
55063;SDS011;40963;52.168;21.296;2022-11-15T08:03:31;52.88;;;16.05;;
55063;SDS011;40963;52.168;21.296;2022-11-15T08:05:57;44.28;;;15.05;;
55063;SDS011;40963;52.168;21.296;2022-11-15T08:08:23;55.70;;;17.05;;
55063;SDS011;40963;52.168;21.296;2022-11-15T08:10:48;54.83;;;16.83;;
55063;SDS011;40963;52.168;21.296;2022-11-15T08:13:14;58.28;;;18.73;;
55063;SDS011;40963;52.168;21.296;2022-11-15T08:15:40;51.13;;;16.80;;
55063;SDS011;40963;52.168;21.296;2022-11-15T08:18:08;52.10;;;17.35;;
55063;SDS011;40963;52.168;21.296;2022-11-15T08:20:36;57.60;;;17.70;;
55063;SDS011;40963;52.168;21.296;2022-11-15T08:23:02;47.90;;;15.13;;
55063;SDS011;40963;52.168;21.296;2022-11-15T08:25:30;43.25;;;15.25;;
55063;SDS011;40963;52.168;21.296;2022-11-15T08:27:58;33.88;;;11.63;;
55063;SDS011;40963;52.168;21.296;2022-11-15T08:30:25;51.17;;;16.63;;
55063;SDS011;40963;52.168;21.296;2022-11-15T08:32:51;48.13;;;16.02;;
55063;SDS011;40963;52.168;21.296;2022-11-15T08:35:18;55.80;;;17.27;;
55063;SDS011;40963;52.168;21.296;2022-11-15T08:37:45;51.65;;;15.57;;
55063;SDS011;40963;52.168;21.296;2022-11-15T08:40:11;30.67;;;12.15;;
55063;SDS011;40963;52.168;21.296;2022-11-15T08:42:37;48.72;;;16.60;;
55063;SDS011;40963;52.168;21.296;2022-11-15T08:45:03;44.60;;;14.65;;
55063;SDS011;40963;52.168;21.296;2022-11-15T08:47:29;41.58;;;14.90;;
55063;SDS011;40963;52.168;21.296;2022-11-15T08:49:54;29.17;;;11.07;;
55063;SDS011;40963;52.168;21.296;2022-11-15T08:52:20;61.67;;;18.92;;
55063;SDS011;40963;52.168;21.296;2022-11-15T08:54:46;50.42;;;17.15;;
55063;SDS011;40963;52.168;21.296;2022-11-15T08:57:12;42.55;;;15.10;;
55063;SDS011;40963;52.168;21.296;2022-11-15T08:59:37;47.47;;;17.27;;
55063;SDS011;40963;52.168;21.296;2022-11-15T09:02:03;55.65;;;17.70;;
55063;SDS011;40963;52.168;21.296;2022-11-15T09:04:29;50.67;;;16.13;;
55063;SDS011;40963;52.168;21.296;2022-11-15T09:06:55;51.10;;;16.83;;
55063;SDS011;40963;52.168;21.296;2022-11-15T09:09:21;48.65;;;15.73;;
55063;SDS011;40963;52.168;21.296;2022-11-15T09:11:46;54.70;;;17.40;;
55063;SDS011;40963;52.168;21.296;2022-11-15T09:14:12;41.63;;;14.30;;
55063;SDS011;40963;52.168;21.296;2022-11-15T09:16:39;59.30;;;17.33;;
55063;SDS011;40963;52.168;21.296;2022-11-15T09:19:05;50.63;;;16.52;;
55063;SDS011;40963;52.168;21.296;2022-11-15T09:21:31;46.83;;;17.42;;
55063;SDS011;40963;52.168;21.296;2022-11-15T09:23:57;46.72;;;16.65;;
55063;SDS011;40963;52.168;21.296;2022-11-15T09:26:23;46.33;;;17.67;;
55063;SDS011;40963;52.168;21.296;2022-11-15T09:28:48;47.50;;;17.02;;
55063;SDS011;40963;52.168;21.296;2022-11-15T09:31:14;33.65;;;12.45;;
55063;SDS011;40963;52.168;21.296;2022-11-15T09:33:42;41.60;;;16.15;;
55063;SDS011;40963;52.168;21.296;2022-11-15T09:36:09;46.80;;;16.52;;
55063;SDS011;40963;52.168;21.296;2022-11-15T09:38:35;46.53;;;17.23;;
55063;SDS011;40963;52.168;21.296;2022-11-15T09:43:49;51.70;;;17.30;;
55063;SDS011;40963;52.168;21.296;2022-11-15T09:48:57;51.40;;;17.63;;
55063;SDS011;40963;52.168;21.296;2022-11-15T09:53:58;47.13;;;16.63;;
55063;SDS011;40963;52.168;21.296;2022-11-15T09:56:35;48.22;;;16.30;;
55063;SDS011;40963;52.168;21.296;2022-11-15T10:02:11;41.42;;;13.82;;
55063;SDS011;40963;52.168;21.296;2022-11-15T10:04:42;46.28;;;16.10;;
55063;SDS011;40963;52.168;21.296;2022-11-15T10:12:18;34.60;;;14.43;;
55063;SDS011;40963;52.168;21.296;2022-11-15T10:14:45;38.22;;;14.70;;
55063;SDS011;40963;52.168;21.296;2022-11-15T10:22:41;36.67;;;14.45;;
55063;SDS011;40963;52.168;21.296;2022-11-15T10:25:16;38.05;;;14.07;;
55063;SDS011;40963;52.168;21.296;2022-11-15T10:27:42;35.45;;;14.77;;
55063;SDS011;40963;52.168;21.296;2022-11-15T10:30:15;42.58;;;13.50;;
55063;SDS011;40963;52.168;21.296;2022-11-15T10:32:43;32.22;;;12.77;;
55063;SDS011;40963;52.168;21.296;2022-11-15T10:35:27;49.72;;;17.08;;
55063;SDS011;40963;52.168;21.296;2022-11-15T10:38:07;47.88;;;15.68;;
55063;SDS011;40963;52.168;21.296;2022-11-15T10:40:37;36.35;;;13.95;;
55063;SDS011;40963;52.168;21.296;2022-11-15T10:43:06;41.08;;;16.05;;
55063;SDS011;40963;52.168;21.296;2022-11-15T10:45:35;39.33;;;14.90;;
55063;SDS011;40963;52.168;21.296;2022-11-15T10:48:22;35.33;;;15.15;;
55063;SDS011;40963;52.168;21.296;2022-11-15T10:50:48;40.22;;;15.38;;
55063;SDS011;40963;52.168;21.296;2022-11-15T10:55:41;37.58;;;16.63;;
55063;SDS011;40963;52.168;21.296;2022-11-15T10:58:20;38.58;;;15.90;;
55063;SDS011;40963;52.168;21.296;2022-11-15T11:00:53;40.55;;;16.98;;
55063;SDS011;40963;52.168;21.296;2022-11-15T11:03:27;42.25;;;16.38;;
55063;SDS011;40963;52.168;21.296;2022-11-15T11:06:18;36.38;;;14.82;;
55063;SDS011;40963;52.168;21.296;2022-11-15T11:08:58;37.10;;;16.17;;
55063;SDS011;40963;52.168;21.296;2022-11-15T11:11:25;18.27;;;8.30;;
55063;SDS011;40963;52.168;21.296;2022-11-15T11:14:13;12.10;;;6.50;;
55063;SDS011;40963;52.168;21.296;2022-11-15T11:27:57;38.22;;;17.27;;
55063;SDS011;40963;52.168;21.296;2022-11-15T11:37:04;41.70;;;15.07;;
55063;SDS011;40963;52.168;21.296;2022-11-15T11:42:19;43.38;;;17.63;;
55063;SDS011;40963;52.168;21.296;2022-11-15T11:50:36;47.67;;;16.67;;
55063;SDS011;40963;52.168;21.296;2022-11-15T11:53:05;46.88;;;18.10;;
55063;SDS011;40963;52.168;21.296;2022-11-15T11:55:47;39.45;;;17.10;;
55063;SDS011;40963;52.168;21.296;2022-11-15T12:03:44;37.88;;;15.52;;
55063;SDS011;40963;52.168;21.296;2022-11-15T12:06:21;47.45;;;18.25;;
55063;SDS011;40963;52.168;21.296;2022-11-15T12:08:57;44.72;;;18.80;;
55063;SDS011;40963;52.168;21.296;2022-11-15T12:11:43;35.50;;;14.93;;
55063;SDS011;40963;52.168;21.296;2022-11-15T12:14:19;34.33;;;11.88;;
55063;SDS011;40963;52.168;21.296;2022-11-15T12:16:51;42.85;;;17.00;;
55063;SDS011;40963;52.168;21.296;2022-11-15T12:19:17;47.15;;;17.55;;
55063;SDS011;40963;52.168;21.296;2022-11-15T12:24:39;49.05;;;18.75;;
55063;SDS011;40963;52.168;21.296;2022-11-15T12:30:16;39.63;;;16.33;;
55063;SDS011;40963;52.168;21.296;2022-11-15T12:33:00;39.50;;;16.30;;
55063;SDS011;40963;52.168;21.296;2022-11-15T12:35:29;37.42;;;17.00;;
55063;SDS011;40963;52.168;21.296;2022-11-15T12:38:12;45.30;;;17.58;;
55063;SDS011;40963;52.168;21.296;2022-11-15T12:41:11;49.55;;;20.52;;
55063;SDS011;40963;52.168;21.296;2022-11-15T12:43:39;48.58;;;18.63;;
55063;SDS011;40963;52.168;21.296;2022-11-15T12:46:12;39.15;;;17.45;;
55063;SDS011;40963;52.168;21.296;2022-11-15T12:48:47;44.88;;;17.58;;
55063;SDS011;40963;52.168;21.296;2022-11-15T12:51:16;40.13;;;14.70;;
55063;SDS011;40963;52.168;21.296;2022-11-15T12:53:44;39.10;;;17.08;;
55063;SDS011;40963;52.168;21.296;2022-11-15T12:58:44;44.08;;;18.75;;
55063;SDS011;40963;52.168;21.296;2022-11-15T13:06:47;41.50;;;18.08;;
55063;SDS011;40963;52.168;21.296;2022-11-15T13:12:09;42.15;;;17.88;;
55063;SDS011;40963;52.168;21.296;2022-11-15T13:17:31;45.08;;;17.55;;
55063;SDS011;40963;52.168;21.296;2022-11-15T13:22:40;39.92;;;16.60;;
55063;SDS011;40963;52.168;21.296;2022-11-15T13:28:11;37.70;;;17.20;;
55063;SDS011;40963;52.168;21.296;2022-11-15T13:30:53;42.30;;;17.55;;
55063;SDS011;40963;52.168;21.296;2022-11-15T13:33:33;49.65;;;18.52;;
55063;SDS011;40963;52.168;21.296;2022-11-15T13:36:01;45.42;;;18.95;;
55063;SDS011;40963;52.168;21.296;2022-11-15T13:38:57;52.47;;;19.60;;
55063;SDS011;40963;52.168;21.296;2022-11-15T13:41:32;43.90;;;19.42;;
55063;SDS011;40963;52.168;21.296;2022-11-15T13:43:59;46.92;;;20.45;;
55063;SDS011;40963;52.168;21.296;2022-11-15T13:46:30;41.78;;;19.35;;
55063;SDS011;40963;52.168;21.296;2022-11-15T13:49:02;50.05;;;20.83;;
55063;SDS011;40963;52.168;21.296;2022-11-15T13:51:42;41.17;;;18.83;;
55063;SDS011;40963;52.168;21.296;2022-11-15T13:56:48;49.47;;;19.48;;
55063;SDS011;40963;52.168;21.296;2022-11-15T13:59:36;48.83;;;19.23;;
55063;SDS011;40963;52.168;21.296;2022-11-15T14:02:13;51.55;;;19.75;;
55063;SDS011;40963;52.168;21.296;2022-11-15T14:04:51;46.25;;;20.38;;
55063;SDS011;40963;52.168;21.296;2022-11-15T14:07:18;58.40;;;21.85;;
55063;SDS011;40963;52.168;21.296;2022-11-15T14:09:45;52.35;;;20.70;;
55063;SDS011;40963;52.168;21.296;2022-11-15T14:12:31;58.42;;;21.05;;
55063;SDS011;40963;52.168;21.296;2022-11-15T14:14:59;54.08;;;20.23;;
55063;SDS011;40963;52.168;21.296;2022-11-15T14:17:42;55.75;;;22.67;;
55063;SDS011;40963;52.168;21.296;2022-11-15T14:30:33;60.08;;;23.48;;
55063;SDS011;40963;52.168;21.296;2022-11-15T14:32:58;57.15;;;24.75;;
55063;SDS011;40963;52.168;21.296;2022-11-15T14:35:24;64.90;;;25.58;;
55063;SDS011;40963;52.168;21.296;2022-11-15T14:37:50;67.20;;;26.30;;
55063;SDS011;40963;52.168;21.296;2022-11-15T14:40:19;66.20;;;26.88;;
55063;SDS011;40963;52.168;21.296;2022-11-15T14:42:47;69.53;;;26.65;;
55063;SDS011;40963;52.168;21.296;2022-11-15T14:45:15;73.15;;;28.63;;
55063;SDS011;40963;52.168;21.296;2022-11-15T14:47:43;67.63;;;26.85;;
55063;SDS011;40963;52.168;21.296;2022-11-15T14:50:13;68.95;;;27.05;;
55063;SDS011;40963;52.168;21.296;2022-11-15T14:52:40;65.90;;;25.60;;
55063;SDS011;40963;52.168;21.296;2022-11-15T14:55:24;67.72;;;26.75;;
55063;SDS011;40963;52.168;21.296;2022-11-15T14:57:53;69.35;;;26.15;;
55063;SDS011;40963;52.168;21.296;2022-11-15T15:00:19;64.60;;;25.60;;
55063;SDS011;40963;52.168;21.296;2022-11-15T15:02:46;70.85;;;24.58;;
55063;SDS011;40963;52.168;21.296;2022-11-15T15:05:14;68.35;;;26.30;;
55063;SDS011;40963;52.168;21.296;2022-11-15T15:07:40;66.90;;;26.13;;
55063;SDS011;40963;52.168;21.296;2022-11-15T15:10:06;67.80;;;25.95;;
55063;SDS011;40963;52.168;21.296;2022-11-15T15:12:32;72.10;;;26.80;;
55063;SDS011;40963;52.168;21.296;2022-11-15T15:14:58;75.05;;;29.55;;
55063;SDS011;40963;52.168;21.296;2022-11-15T15:17:24;65.68;;;28.00;;
55063;SDS011;40963;52.168;21.296;2022-11-15T15:19:49;77.53;;;30.50;;
55063;SDS011;40963;52.168;21.296;2022-11-15T15:22:16;78.82;;;29.20;;
55063;SDS011;40963;52.168;21.296;2022-11-15T15:24:44;75.75;;;26.65;;
55063;SDS011;40963;52.168;21.296;2022-11-15T15:27:11;82.82;;;30.83;;
55063;SDS011;40963;52.168;21.296;2022-11-15T15:29:37;76.43;;;31.83;;
55063;SDS011;40963;52.168;21.296;2022-11-15T15:32:03;78.70;;;30.02;;
55063;SDS011;40963;52.168;21.296;2022-11-15T15:34:29;80.13;;;30.30;;
55063;SDS011;40963;52.168;21.296;2022-11-15T15:37:28;73.32;;;28.95;;
55063;SDS011;40963;52.168;21.296;2022-11-15T15:39:49;74.53;;;25.27;;
55063;SDS011;40963;52.168;21.296;2022-11-15T15:42:19;61.15;;;22.13;;
55063;SDS011;40963;52.168;21.296;2022-11-15T15:44:46;85.18;;;29.45;;
55063;SDS011;40963;52.168;21.296;2022-11-15T15:47:12;76.55;;;28.70;;
55063;SDS011;40963;52.168;21.296;2022-11-15T15:49:40;77.25;;;30.35;;
55063;SDS011;40963;52.168;21.296;2022-11-15T15:52:06;82.75;;;30.20;;
55063;SDS011;40963;52.168;21.296;2022-11-15T15:54:32;80.68;;;28.08;;
55063;SDS011;40963;52.168;21.296;2022-11-15T15:56:58;86.78;;;34.80;;
55063;SDS011;40963;52.168;21.296;2022-11-15T15:59:23;82.95;;;30.05;;
55063;SDS011;40963;52.168;21.296;2022-11-15T16:01:49;85.30;;;29.77;;
55063;SDS011;40963;52.168;21.296;2022-11-15T16:04:15;85.20;;;32.13;;
55063;SDS011;40963;52.168;21.296;2022-11-15T16:06:41;79.40;;;29.90;;
55063;SDS011;40963;52.168;21.296;2022-11-15T16:09:15;82.40;;;29.40;;
55063;SDS011;40963;52.168;21.296;2022-11-15T16:11:43;88.40;;;30.85;;
55063;SDS011;40963;52.168;21.296;2022-11-15T16:14:09;66.32;;;23.85;;
55063;SDS011;40963;52.168;21.296;2022-11-15T16:16:35;82.45;;;30.77;;
55063;SDS011;40963;52.168;21.296;2022-11-15T16:19:01;85.10;;;30.73;;
55063;SDS011;40963;52.168;21.296;2022-11-15T16:21:27;86.55;;;31.23;;